createdAt,value
2023-05-24T00:08:23.907Z,7.60
2023-05-24T00:18:32.285Z,9.40
2023-05-24T00:28:37.764Z,7.70
2023-05-24T00:38:43.082Z,8.00
2023-05-24T00:48:46.936Z,7.70
2023-05-24T00:58:54.990Z,7.70
2023-05-24T01:09:26.648Z,8.50
2023-05-24T01:20:03.309Z,8.10
2023-05-24T01:30:07.824Z,11.20
2023-05-24T01:40:14.684Z,9.90
2023-05-24T01:50:27.158Z,8.80
2023-05-24T02:00:35.699Z,8.90
2023-05-24T02:10:44.888Z,9.90
2023-05-24T02:20:50.289Z,9.00
2023-05-24T02:30:53.938Z,11.60
2023-05-24T02:41:00.996Z,10.00
2023-05-24T02:51:04.849Z,9.70
2023-05-24T03:01:08.836Z,11.10
2023-05-24T03:11:13.099Z,9.80
2023-05-24T03:21:21.101Z,9.90
2023-05-24T03:31:28.661Z,9.80
2023-05-24T03:41:34.585Z,10.70
2023-05-24T03:51:38.558Z,9.60
2023-05-24T04:01:42.259Z,11.80
2023-05-24T04:11:45.887Z,11.20
2023-05-24T04:21:50.465Z,9.60
2023-05-24T04:31:56.615Z,11.10
2023-05-24T04:42:01.480Z,9.70
2023-05-24T04:52:05.501Z,12.30
2023-05-24T05:02:09.096Z,11.10
2023-05-24T05:12:14.574Z,8.40
2023-05-24T05:22:18.263Z,8.90
2023-05-24T05:32:23.892Z,7.90
2023-05-24T05:42:27.582Z,8.40
2023-05-24T05:52:32.402Z,8.30
2023-05-24T06:02:36.195Z,7.40
2023-05-24T06:12:40.831Z,7.80
2023-05-24T06:22:45.836Z,7.90
2023-05-24T06:32:49.537Z,7.50
2023-05-24T06:42:58.887Z,7.50
2023-05-24T06:53:07.722Z,7.90
2023-05-24T07:03:12.983Z,9.50
2023-05-24T07:13:18.457Z,7.70
2023-05-24T07:23:22.002Z,6.80
2023-05-24T07:33:25.654Z,6.90
2023-05-24T07:43:33.011Z,7.70
2023-05-24T07:53:38.074Z,7.30
2023-05-24T08:03:41.833Z,6.80
2023-05-24T08:13:47.539Z,8.00
2023-05-24T08:23:51.405Z,9.00
2023-05-24T08:33:56.460Z,8.50
2023-05-24T08:44:02.796Z,8.70
2023-05-24T08:54:07.778Z,7.90
2023-05-24T09:04:12.084Z,8.00
2023-05-24T09:14:16.084Z,6.90
2023-05-24T09:24:20.832Z,6.50
2023-05-24T09:34:24.446Z,8.10
2023-05-24T09:44:30.688Z,6.00
2023-05-24T09:54:36.583Z,9.10
2023-05-24T10:04:42.522Z,6.30
2023-05-24T10:14:46.453Z,7.00
2023-05-24T10:24:55.682Z,5.30
2023-05-24T10:35:00.863Z,7.70
2023-05-24T10:45:36.073Z,6.50
2023-05-24T10:56:09.855Z,7.60
2023-05-24T11:06:15.633Z,6.70
2023-05-24T11:16:35.750Z,6.40
2023-05-24T11:26:41.118Z,6.90
2023-05-24T11:36:46.393Z,6.60
2023-05-24T11:47:03.582Z,6.80
2023-05-24T11:57:07.267Z,8.00
2023-05-24T12:07:13.270Z,13.40
2023-05-24T12:17:18.697Z,5.50
2023-05-24T12:27:35.002Z,6.70
2023-05-24T12:37:40.375Z,5.30
2023-05-24T12:47:45.155Z,8.10
2023-05-24T12:57:54.293Z,13.40
2023-05-24T13:07:58.315Z,6.50
2023-05-24T13:18:03.753Z,5.00
2023-05-24T13:28:07.608Z,4.90
2023-05-24T13:38:11.317Z,6.70
2023-05-24T13:48:15.389Z,8.70
2023-05-24T13:58:25.474Z,5.40
2023-05-24T14:08:35.959Z,6.50
2023-05-24T14:19:11.416Z,6.20
2023-05-24T14:42:11.248Z,7.20
2023-05-24T14:52:26.119Z,6.30
2023-05-24T15:02:31.508Z,6.40
2023-05-24T15:12:35.822Z,6.10
2023-05-24T15:22:39.756Z,6.10
2023-05-24T15:32:43.694Z,7.50
2023-05-24T15:42:47.325Z,5.80
2023-05-24T15:52:51.147Z,5.70
2023-05-24T16:02:56.129Z,5.60
2023-05-24T16:13:00.013Z,6.00
2023-05-24T16:23:03.995Z,8.70
2023-05-24T16:33:07.943Z,8.30
2023-05-24T16:43:11.968Z,6.30
2023-05-24T16:53:16.060Z,10.80
2023-05-24T17:13:31.639Z,15.60
2023-05-24T17:23:40.802Z,13.90
2023-05-24T17:33:44.873Z,13.40
2023-05-24T17:43:50.215Z,12.40
2023-05-24T17:53:54.341Z,12.00
2023-05-24T18:03:58.299Z,22.10
2023-05-24T18:14:04.097Z,9.00
2023-05-24T18:24:08.007Z,10.10
2023-05-24T18:34:12.956Z,10.00
2023-05-24T18:44:20.299Z,15.80
2023-05-24T18:54:30.687Z,11.40
2023-05-24T19:04:34.708Z,8.60
2023-05-24T19:14:40.333Z,9.10
2023-05-24T19:47:14.403Z,10.20
2023-05-24T19:57:18.377Z,9.90
2023-05-24T20:07:22.154Z,10.80
2023-05-24T20:17:25.852Z,14.30
2023-05-24T20:27:30.234Z,13.00
2023-05-24T20:37:34.047Z,9.20
2023-05-24T20:47:42.287Z,9.10
2023-05-24T20:57:48.072Z,9.30
2023-05-24T21:07:59.209Z,12.30
2023-05-24T21:18:04.729Z,11.90
2023-05-24T21:28:08.559Z,10.40
2023-05-24T21:38:12.182Z,10.50
2023-05-24T21:48:15.719Z,10.10
2023-05-24T21:58:19.486Z,18.30
2023-05-24T22:08:23.159Z,10.40
2023-05-24T22:18:28.550Z,11.80
2023-05-24T22:29:00.979Z,11.80
2023-05-24T22:39:05.515Z,12.30
2023-05-24T22:49:13.378Z,14.10
2023-05-24T22:59:17.089Z,14.50
2023-05-24T23:09:35.099Z,14.50
2023-05-24T23:19:43.358Z,12.70
2023-05-24T23:29:47.256Z,13.30
2023-05-24T23:39:51.027Z,15.00
2023-05-24T23:49:54.741Z,14.20
2023-05-24T23:59:58.338Z,17.20
